sensor_id;sensor_type;location;lat;lon;timestamp;pressure;altitude;pressure_sealevel;temperature;humidity
56811;BME280;42691;47.234;27.494;2022-09-12T00:00:10;99075.44;;;16.87;100.00
56811;BME280;42691;47.234;27.494;2022-09-12T00:02:35;99074.84;;;16.83;100.00
56811;BME280;42691;47.234;27.494;2022-09-12T00:05:01;99076.78;;;16.81;100.00
56811;BME280;42691;47.234;27.494;2022-09-12T00:07:27;99074.72;;;16.85;100.00
56811;BME280;42691;47.234;27.494;2022-09-12T00:09:52;99071.25;;;16.84;100.00
56811;BME280;42691;47.234;27.494;2022-09-12T00:12:18;99071.66;;;16.80;100.00
56811;BME280;42691;47.234;27.494;2022-09-12T00:14:43;99062.94;;;16.79;100.00
56811;BME280;42691;47.234;27.494;2022-09-12T00:17:09;99062.16;;;16.88;100.00
56811;BME280;42691;47.234;27.494;2022-09-12T00:19:34;99063.38;;;16.84;100.00
56811;BME280;42691;47.234;27.494;2022-09-12T00:22:00;99065.94;;;16.64;100.00
56811;BME280;42691;47.234;27.494;2022-09-12T00:24:26;99067.00;;;16.72;100.00
56811;BME280;42691;47.234;27.494;2022-09-12T00:26:52;99064.50;;;16.71;100.00
56811;BME280;42691;47.234;27.494;2022-09-12T00:29:20;99067.28;;;16.58;100.00
56811;BME280;42691;47.234;27.494;2022-09-12T00:31:46;99066.59;;;16.56;100.00
56811;BME280;42691;47.234;27.494;2022-09-12T00:34:12;99072.25;;;16.72;100.00
56811;BME280;42691;47.234;27.494;2022-09-12T00:36:38;99064.78;;;16.68;100.00
56811;BME280;42691;47.234;27.494;2022-09-12T00:39:04;99065.75;;;16.55;100.00
56811;BME280;42691;47.234;27.494;2022-09-12T00:41:36;99066.91;;;16.63;100.00
56811;BME280;42691;47.234;27.494;2022-09-12T00:46:56;99061.66;;;16.63;100.00
56811;BME280;42691;47.234;27.494;2022-09-12T00:54:38;99066.72;;;16.54;100.00
56811;BME280;42691;47.234;27.494;2022-09-12T00:57:07;99062.16;;;16.56;100.00
56811;BME280;42691;47.234;27.494;2022-09-12T00:59:40;99058.25;;;16.51;100.00
56811;BME280;42691;47.234;27.494;2022-09-12T01:02:07;99063.00;;;16.57;100.00
56811;BME280;42691;47.234;27.494;2022-09-12T01:04:36;99062.44;;;16.53;100.00
56811;BME280;42691;47.234;27.494;2022-09-12T01:07:04;99059.94;;;16.52;100.00
56811;BME280;42691;47.234;27.494;2022-09-12T01:09:31;99061.91;;;16.60;100.00
56811;BME280;42691;47.234;27.494;2022-09-12T01:11:56;99072.28;;;16.61;100.00
56811;BME280;42691;47.234;27.494;2022-09-12T01:14:22;99067.41;;;16.68;100.00
56811;BME280;42691;47.234;27.494;2022-09-12T01:16:48;99053.91;;;16.61;100.00
56811;BME280;42691;47.234;27.494;2022-09-12T01:22:10;99065.38;;;16.60;100.00
56811;BME280;42691;47.234;27.494;2022-09-12T01:27:39;99061.03;;;16.49;100.00
56811;BME280;42691;47.234;27.494;2022-09-12T01:44:24;99046.72;;;16.42;100.00
56811;BME280;42691;47.234;27.494;2022-09-12T01:49:37;99047.00;;;16.60;100.00
56811;BME280;42691;47.234;27.494;2022-09-12T01:52:13;99047.91;;;16.70;100.00
56811;BME280;42691;47.234;27.494;2022-09-12T01:54:47;99053.34;;;16.57;100.00
56811;BME280;42691;47.234;27.494;2022-09-12T01:57:39;99055.94;;;16.69;100.00
56811;BME280;42691;47.234;27.494;2022-09-12T02:00:09;99057.72;;;16.68;100.00
56811;BME280;42691;47.234;27.494;2022-09-12T02:02:43;99051.25;;;16.72;100.00
56811;BME280;42691;47.234;27.494;2022-09-12T02:05:26;99056.28;;;16.64;100.00
56811;BME280;42691;47.234;27.494;2022-09-12T02:10:32;99053.00;;;16.51;100.00
56811;BME280;42691;47.234;27.494;2022-09-12T02:13:07;99059.69;;;16.55;100.00
56811;BME280;42691;47.234;27.494;2022-09-12T02:15:41;99065.56;;;16.47;100.00
56811;BME280;42691;47.234;27.494;2022-09-12T02:18:11;99048.84;;;16.48;100.00
56811;BME280;42691;47.234;27.494;2022-09-12T02:20:38;99048.00;;;16.48;100.00
56811;BME280;42691;47.234;27.494;2022-09-12T02:23:08;99056.91;;;16.56;100.00
56811;BME280;42691;47.234;27.494;2022-09-12T02:25:39;99059.69;;;16.55;100.00
56811;BME280;42691;47.234;27.494;2022-09-12T02:28:14;99058.72;;;16.56;100.00
56811;BME280;42691;47.234;27.494;2022-09-12T02:30:43;99061.78;;;16.40;100.00
56811;BME280;42691;47.234;27.494;2022-09-12T02:33:23;99067.59;;;16.44;100.00
56811;BME280;42691;47.234;27.494;2022-09-12T02:38:52;99079.44;;;16.38;100.00
56811;BME280;42691;47.234;27.494;2022-09-12T02:41:19;99073.94;;;16.41;100.00
56811;BME280;42691;47.234;27.494;2022-09-12T02:43:46;99081.94;;;16.40;100.00
56811;BME280;42691;47.234;27.494;2022-09-12T02:46:59;99086.94;;;16.43;100.00
56811;BME280;42691;47.234;27.494;2022-09-12T02:49:04;99081.19;;;16.49;100.00
56811;BME280;42691;47.234;27.494;2022-09-12T02:51:30;99084.78;;;16.48;100.00
56811;BME280;42691;47.234;27.494;2022-09-12T02:53:55;99090.84;;;16.48;100.00
56811;BME280;42691;47.234;27.494;2022-09-12T02:56:27;99092.19;;;16.43;100.00
56811;BME280;42691;47.234;27.494;2022-09-12T02:58:55;99089.78;;;16.51;100.00
56811;BME280;42691;47.234;27.494;2022-09-12T03:04:25;99097.31;;;16.44;100.00
56811;BME280;42691;47.234;27.494;2022-09-12T03:07:18;99091.97;;;16.35;100.00
56811;BME280;42691;47.234;27.494;2022-09-12T03:09:59;99103.66;;;16.31;100.00
56811;BME280;42691;47.234;27.494;2022-09-12T03:20:43;99101.41;;;16.26;100.00
56811;BME280;42691;47.234;27.494;2022-09-12T03:23:29;99103.59;;;16.21;100.00
56811;BME280;42691;47.234;27.494;2022-09-12T03:26:15;99109.66;;;16.21;100.00
56811;BME280;42691;47.234;27.494;2022-09-12T03:28:46;99092.72;;;16.25;100.00
56811;BME280;42691;47.234;27.494;2022-09-12T03:31:17;99108.91;;;16.31;100.00
56811;BME280;42691;47.234;27.494;2022-09-12T03:33:43;99103.34;;;16.24;100.00
56811;BME280;42691;47.234;27.494;2022-09-12T03:36:23;99109.16;;;16.27;100.00
56811;BME280;42691;47.234;27.494;2022-09-12T03:38:48;99119.81;;;16.15;100.00
56811;BME280;42691;47.234;27.494;2022-09-12T03:41:14;99107.06;;;16.10;100.00
56811;BME280;42691;47.234;27.494;2022-09-12T03:43:40;99121.41;;;16.06;100.00
56811;BME280;42691;47.234;27.494;2022-09-12T03:46:05;99107.69;;;16.03;100.00
56811;BME280;42691;47.234;27.494;2022-09-12T03:48:31;99104.56;;;15.98;100.00
56811;BME280;42691;47.234;27.494;2022-09-12T03:51:04;99133.31;;;16.10;100.00
56811;BME280;42691;47.234;27.494;2022-09-12T03:53:30;99125.94;;;16.04;100.00
56811;BME280;42691;47.234;27.494;2022-09-12T03:55:57;99136.66;;;16.12;100.00
56811;BME280;42691;47.234;27.494;2022-09-12T03:58:23;99133.06;;;16.13;100.00
56811;BME280;42691;47.234;27.494;2022-09-12T04:00:49;99131.66;;;16.09;100.00
56811;BME280;42691;47.234;27.494;2022-09-12T04:03:15;99139.41;;;16.11;100.00
56811;BME280;42691;47.234;27.494;2022-09-12T04:05:41;99141.66;;;16.15;100.00
56811;BME280;42691;47.234;27.494;2022-09-12T04:08:06;99122.09;;;15.97;100.00
56811;BME280;42691;47.234;27.494;2022-09-12T04:10:32;99116.97;;;15.95;100.00
56811;BME280;42691;47.234;27.494;2022-09-12T04:12:57;99131.41;;;16.12;100.00
56811;BME280;42691;47.234;27.494;2022-09-12T04:15:23;99119.25;;;16.11;100.00
56811;BME280;42691;47.234;27.494;2022-09-12T04:17:49;99133.91;;;16.14;100.00
56811;BME280;42691;47.234;27.494;2022-09-12T04:20:14;99131.41;;;16.12;100.00
56811;BME280;42691;47.234;27.494;2022-09-12T04:22:39;99134.94;;;16.22;100.00
56811;BME280;42691;47.234;27.494;2022-09-12T04:25:06;99131.66;;;16.09;100.00
56811;BME280;42691;47.234;27.494;2022-09-12T04:27:32;99135.44;;;16.16;100.00
56811;BME280;42691;47.234;27.494;2022-09-12T04:29:59;99147.97;;;16.13;100.00
56811;BME280;42691;47.234;27.494;2022-09-12T04:32:25;99140.47;;;16.08;100.00
56811;BME280;42691;47.234;27.494;2022-09-12T04:34:51;99149.53;;;16.04;100.00
56811;BME280;42691;47.234;27.494;2022-09-12T04:37:17;99154.78;;;16.04;100.00
56811;BME280;42691;47.234;27.494;2022-09-12T04:39:42;99159.56;;;16.10;100.00
56811;BME280;42691;47.234;27.494;2022-09-12T04:42:08;99160.97;;;16.14;100.00
56811;BME280;42691;47.234;27.494;2022-09-12T04:44:33;99157.25;;;16.28;100.00
56811;BME280;42691;47.234;27.494;2022-09-12T04:46:59;99161.66;;;16.27;100.00
56811;BME280;42691;47.234;27.494;2022-09-12T04:49:24;99162.75;;;16.25;100.00
56811;BME280;42691;47.234;27.494;2022-09-12T04:51:51;99153.78;;;16.27;100.00
56811;BME280;42691;47.234;27.494;2022-09-12T04:54:19;99157.81;;;16.43;100.00
56811;BME280;42691;47.234;27.494;2022-09-12T04:56:47;99164.22;;;16.61;100.00
56811;BME280;42691;47.234;27.494;2022-09-12T04:59:14;99154.66;;;16.71;100.00
56811;BME280;42691;47.234;27.494;2022-09-12T05:01:40;99167.22;;;16.56;100.00
56811;BME280;42691;47.234;27.494;2022-09-12T05:04:05;99166.63;;;16.53;100.00
56811;BME280;42691;47.234;27.494;2022-09-12T05:06:34;99161.13;;;16.56;100.00
56811;BME280;42691;47.234;27.494;2022-09-12T05:09:01;99155.38;;;16.62;100.00
56811;BME280;42691;47.234;27.494;2022-09-12T05:11:29;99164.78;;;16.65;100.00
56811;BME280;42691;47.234;27.494;2022-09-12T05:13:55;99160.25;;;16.78;100.00
56811;BME280;42691;47.234;27.494;2022-09-12T05:16:21;99154.56;;;16.73;100.00
56811;BME280;42691;47.234;27.494;2022-09-12T05:18:47;99160.97;;;16.69;100.00
56811;BME280;42691;47.234;27.494;2022-09-12T05:21:16;99169.00;;;16.67;100.00
56811;BME280;42691;47.234;27.494;2022-09-12T05:23:43;99160.34;;;16.33;100.00
56811;BME280;42691;47.234;27.494;2022-09-12T05:26:13;99172.13;;;16.50;100.00
56811;BME280;42691;47.234;27.494;2022-09-12T05:28:39;99162.00;;;16.45;100.00
56811;BME280;42691;47.234;27.494;2022-09-12T05:33:37;99174.03;;;16.48;100.00
56811;BME280;42691;47.234;27.494;2022-09-12T05:36:04;99160.16;;;16.57;100.00
56811;BME280;42691;47.234;27.494;2022-09-12T05:38:32;99149.44;;;16.49;100.00
56811;BME280;42691;47.234;27.494;2022-09-12T05:41:12;99155.88;;;16.56;100.00
56811;BME280;42691;47.234;27.494;2022-09-12T05:43:39;99161.38;;;16.53;100.00
56811;BME280;42691;47.234;27.494;2022-09-12T05:46:17;99158.94;;;16.61;100.00
56811;BME280;42691;47.234;27.494;2022-09-12T05:48:44;99160.03;;;16.58;100.00
56811;BME280;42691;47.234;27.494;2022-09-12T05:51:18;99144.53;;;16.55;100.00
56811;BME280;42691;47.234;27.494;2022-09-12T05:53:49;99159.19;;;16.58;100.00
56811;BME280;42691;47.234;27.494;2022-09-12T05:56:18;99144.75;;;16.75;100.00
56811;BME280;42691;47.234;27.494;2022-09-12T05:58:52;99156.69;;;16.68;100.00
56811;BME280;42691;47.234;27.494;2022-09-12T06:01:18;99152.50;;;16.65;100.00
56811;BME280;42691;47.234;27.494;2022-09-12T06:03:47;99148.88;;;16.45;100.00
56811;BME280;42691;47.234;27.494;2022-09-12T06:06:14;99131.34;;;16.35;100.00
56811;BME280;42691;47.234;27.494;2022-09-12T06:08:42;99152.81;;;16.40;100.00
56811;BME280;42691;47.234;27.494;2022-09-12T06:11:13;99138.41;;;16.23;100.00
56811;BME280;42691;47.234;27.494;2022-09-12T06:13:40;99141.41;;;16.18;100.00
56811;BME280;42691;47.234;27.494;2022-09-12T06:18:34;99119.03;;;16.46;100.00
56811;BME280;42691;47.234;27.494;2022-09-12T06:21:07;99124.53;;;16.43;100.00
56811;BME280;42691;47.234;27.494;2022-09-12T06:23:33;99105.56;;;16.40;100.00
56811;BME280;42691;47.234;27.494;2022-09-12T06:25:59;99118.50;;;16.20;100.00
56811;BME280;42691;47.234;27.494;2022-09-12T06:28:25;99109.44;;;16.13;100.00
56811;BME280;42691;47.234;27.494;2022-09-12T06:30:51;99126.19;;;16.44;100.00
56811;BME280;42691;47.234;27.494;2022-09-12T06:33:17;99121.22;;;16.62;100.00
56811;BME280;42691;47.234;27.494;2022-09-12T06:35:42;99132.66;;;16.72;100.00
56811;BME280;42691;47.234;27.494;2022-09-12T06:38:08;99130.81;;;16.52;100.00
56811;BME280;42691;47.234;27.494;2022-09-12T06:40:39;99137.09;;;16.61;100.00
56811;BME280;42691;47.234;27.494;2022-09-12T06:43:05;99123.38;;;16.68;100.00
56811;BME280;42691;47.234;27.494;2022-09-12T06:45:30;99137.31;;;17.01;100.00
56811;BME280;42691;47.234;27.494;2022-09-12T06:47:56;99130.59;;;17.08;100.00
56811;BME280;42691;47.234;27.494;2022-09-12T06:50:22;99115.78;;;17.07;100.00
56811;BME280;42691;47.234;27.494;2022-09-12T06:52:49;99125.66;;;16.94;100.00
56811;BME280;42691;47.234;27.494;2022-09-12T06:55:15;99132.72;;;16.93;100.00
56811;BME280;42691;47.234;27.494;2022-09-12T06:57:41;99119.44;;;16.95;100.00
56811;BME280;42691;47.234;27.494;2022-09-12T07:00:07;99119.00;;;16.90;100.00
56811;BME280;42691;47.234;27.494;2022-09-12T07:02:32;99127.50;;;17.03;100.00
56811;BME280;42691;47.234;27.494;2022-09-12T07:04:58;99129.00;;;16.96;100.00
56811;BME280;42691;47.234;27.494;2022-09-12T07:07:23;99140.16;;;16.88;100.00
56811;BME280;42691;47.234;27.494;2022-09-12T07:09:49;99132.19;;;16.78;100.00
56811;BME280;42691;47.234;27.494;2022-09-12T07:12:14;99140.56;;;16.72;100.00
56811;BME280;42691;47.234;27.494;2022-09-12T07:14:40;99144.81;;;16.84;100.00
56811;BME280;42691;47.234;27.494;2022-09-12T07:17:05;99138.44;;;16.66;100.00
56811;BME280;42691;47.234;27.494;2022-09-12T07:19:31;99137.75;;;16.53;100.00
56811;BME280;42691;47.234;27.494;2022-09-12T07:21:57;99147.00;;;16.68;100.00
56811;BME280;42691;47.234;27.494;2022-09-12T07:24:22;99147.84;;;16.80;100.00
56811;BME280;42691;47.234;27.494;2022-09-12T07:26:48;99145.97;;;16.92;100.00
56811;BME280;42691;47.234;27.494;2022-09-12T07:29:15;99142.38;;;16.93;100.00
56811;BME280;42691;47.234;27.494;2022-09-12T07:31:41;99159.06;;;17.03;100.00
56811;BME280;42691;47.234;27.494;2022-09-12T07:34:07;99153.41;;;16.86;100.00
56811;BME280;42691;47.234;27.494;2022-09-12T07:36:33;99151.50;;;16.88;100.00
56811;BME280;42691;47.234;27.494;2022-09-12T07:38:58;99151.75;;;17.06;100.00
56811;BME280;42691;47.234;27.494;2022-09-12T07:41:29;99145.41;;;17.30;100.00
56811;BME280;42691;47.234;27.494;2022-09-12T07:43:57;99150.84;;;17.59;100.00
56811;BME280;42691;47.234;27.494;2022-09-12T07:46:23;99149.81;;;17.71;100.00
56811;BME280;42691;47.234;27.494;2022-09-12T07:48:51;99149.09;;;17.99;100.00
56811;BME280;42691;47.234;27.494;2022-09-12T07:51:17;99138.69;;;17.88;100.00
56811;BME280;42691;47.234;27.494;2022-09-12T07:53:43;99127.53;;;17.75;100.00
56811;BME280;42691;47.234;27.494;2022-09-12T07:56:09;99125.94;;;17.63;100.00
56811;BME280;42691;47.234;27.494;2022-09-12T07:58:36;99123.91;;;17.45;100.00
56811;BME280;42691;47.234;27.494;2022-09-12T08:01:07;99127.09;;;17.18;100.00
56811;BME280;42691;47.234;27.494;2022-09-12T08:03:34;99132.41;;;17.28;100.00
56811;BME280;42691;47.234;27.494;2022-09-12T08:06:07;99134.94;;;17.39;100.00
56811;BME280;42691;47.234;27.494;2022-09-12T08:08:34;99135.34;;;17.65;100.00
56811;BME280;42691;47.234;27.494;2022-09-12T08:11:02;99129.13;;;17.87;100.00
56811;BME280;42691;47.234;27.494;2022-09-12T08:13:28;99127.56;;;18.25;100.00
56811;BME280;42691;47.234;27.494;2022-09-12T08:15:58;99127.72;;;18.42;100.00
56811;BME280;42691;47.234;27.494;2022-09-12T08:18:28;99121.34;;;18.26;100.00
56811;BME280;42691;47.234;27.494;2022-09-12T08:21:12;99109.78;;;18.07;100.00
56811;BME280;42691;47.234;27.494;2022-09-12T08:23:37;99109.63;;;17.99;100.00
56811;BME280;42691;47.234;27.494;2022-09-12T08:26:04;99111.56;;;17.97;100.00
56811;BME280;42691;47.234;27.494;2022-09-12T08:28:31;99124.38;;;17.81;100.00
56811;BME280;42691;47.234;27.494;2022-09-12T08:31:06;99123.59;;;17.90;100.00
56811;BME280;42691;47.234;27.494;2022-09-12T08:33:32;99117.53;;;17.99;100.00
56811;BME280;42691;47.234;27.494;2022-09-12T08:38:35;99108.00;;;17.77;100.00
56811;BME280;42691;47.234;27.494;2022-09-12T08:41:25;99100.31;;;17.86;100.00
56811;BME280;42691;47.234;27.494;2022-09-12T08:47:31;99109.47;;;17.91;100.00
56811;BME280;42691;47.234;27.494;2022-09-12T08:55:34;99117.16;;;17.83;100.00
56811;BME280;42691;47.234;27.494;2022-09-12T08:58:11;99114.91;;;17.69;100.00
56811;BME280;42691;47.234;27.494;2022-09-12T09:11:48;99097.56;;;17.87;100.00
56811;BME280;42691;47.234;27.494;2022-09-12T09:15:29;99100.59;;;17.92;100.00
56811;BME280;42691;47.234;27.494;2022-09-12T09:28:43;99087.53;;;18.89;100.00
56811;BME280;42691;47.234;27.494;2022-09-12T09:31:15;99102.94;;;18.84;100.00
56811;BME280;42691;47.234;27.494;2022-09-12T09:33:41;99094.63;;;18.69;100.00
56811;BME280;42691;47.234;27.494;2022-09-12T09:39:15;99102.34;;;18.41;100.00
56811;BME280;42691;47.234;27.494;2022-09-12T09:44:33;99104.19;;;18.99;100.00
56811;BME280;42691;47.234;27.494;2022-09-12T09:46:59;99098.50;;;18.84;100.00
56811;BME280;42691;47.234;27.494;2022-09-12T09:49:31;99104.47;;;18.96;100.00
56811;BME280;42691;47.234;27.494;2022-09-12T09:51:58;99099.63;;;18.82;100.00
56811;BME280;42691;47.234;27.494;2022-09-12T09:54:38;99100.97;;;19.05;100.00
56811;BME280;42691;47.234;27.494;2022-09-12T10:03:25;99105.56;;;19.03;100.00
56811;BME280;42691;47.234;27.494;2022-09-12T10:05:56;99100.97;;;19.05;100.00
56811;BME280;42691;47.234;27.494;2022-09-12T10:08:28;99102.94;;;18.84;100.00
56811;BME280;42691;47.234;27.494;2022-09-12T10:11:03;99103.50;;;18.97;100.00
56811;BME280;42691;47.234;27.494;2022-09-12T10:13:36;99093.66;;;18.70;100.00
56811;BME280;42691;47.234;27.494;2022-09-12T10:16:05;99102.75;;;18.56;100.00
56811;BME280;42691;47.234;27.494;2022-09-12T10:18:36;99087.44;;;18.71;100.00
56811;BME280;42691;47.234;27.494;2022-09-12T10:21:13;99106.00;;;18.98;100.00
56811;BME280;42691;47.234;27.494;2022-09-12T10:23:41;99104.47;;;18.96;100.00
56811;BME280;42691;47.234;27.494;2022-09-12T10:26:12;99100.59;;;19.00;100.00
56811;BME280;42691;47.234;27.494;2022-09-12T10:29:26;99105.88;;;18.71;100.00
56811;BME280;42691;47.234;27.494;2022-09-12T10:31:41;99097.69;;;18.74;100.00
56811;BME280;42691;47.234;27.494;2022-09-12T10:34:19;99102.94;;;18.84;100.00
56811;BME280;42691;47.234;27.494;2022-09-12T10:36:45;99105.72;;;19.01;100.00
56811;BME280;42691;47.234;27.494;2022-09-12T10:39:17;99103.78;;;18.74;100.00
56811;BME280;42691;47.234;27.494;2022-09-12T10:41:43;99104.34;;;18.68;100.00
56811;BME280;42691;47.234;27.494;2022-09-12T10:44:22;99107.53;;;18.82;100.00
56811;BME280;42691;47.234;27.494;2022-09-12T10:46:50;99108.50;;;18.81;100.00
56811;BME280;42691;47.234;27.494;2022-09-12T10:51:46;99120.41;;;19.04;100.00
56811;BME280;42691;47.234;27.494;2022-09-12T10:54:12;99105.16;;;18.79;100.00
56811;BME280;42691;47.234;27.494;2022-09-12T10:59:44;99114.19;;;18.76;100.00
56811;BME280;42691;47.234;27.494;2022-09-12T11:30:25;99106.50;;;19.21;100.00
56811;BME280;42691;47.234;27.494;2022-09-12T11:35:49;99105.44;;;19.04;100.00
56811;BME280;42691;47.234;27.494;2022-09-12T11:38:27;99116.41;;;19.00;100.00
56811;BME280;42691;47.234;27.494;2022-09-12T11:41:25;99118.50;;;18.67;100.00
56811;BME280;42691;47.234;27.494;2022-09-12T11:44:00;99128.13;;;18.48;100.00
56811;BME280;42691;47.234;27.494;2022-09-12T11:46:34;99118.06;;;18.62;100.00
56811;BME280;42691;47.234;27.494;2022-09-12T11:52:23;99110.53;;;18.48;100.00
56811;BME280;42691;47.234;27.494;2022-09-12T11:54:49;99121.19;;;18.37;100.00
56811;BME280;42691;47.234;27.494;2022-09-12T11:57:25;99114.13;;;18.37;100.00
56811;BME280;42691;47.234;27.494;2022-09-12T12:12:51;99126.47;;;18.37;100.00
56811;BME280;42691;47.234;27.494;2022-09-12T12:15:19;99119.94;;;18.22;100.00
56811;BME280;42691;47.234;27.494;2022-09-12T12:18:01;99117.56;;;18.19;100.00
56811;BME280;42691;47.234;27.494;2022-09-12T12:20:27;99114.34;;;18.15;100.00
56811;BME280;42691;47.234;27.494;2022-09-12T12:22:54;99118.38;;;18.19;100.00
56811;BME280;42691;47.234;27.494;2022-09-12T12:25:24;99128.53;;;18.24;100.00
56811;BME280;42691;47.234;27.494;2022-09-12T12:27:54;99127.56;;;18.25;100.00
56811;BME280;42691;47.234;27.494;2022-09-12T12:35:36;99126.47;;;18.37;100.00
56811;BME280;42691;47.234;27.494;2022-09-12T12:38:11;99123.13;;;18.35;100.00
56811;BME280;42691;47.234;27.494;2022-09-12T12:40:49;99103.69;;;18.17;100.00
56811;BME280;42691;47.234;27.494;2022-09-12T12:43:30;99113.44;;;18.26;100.00
56811;BME280;42691;47.234;27.494;2022-09-12T12:46:04;99111.50;;;18.37;100.00
56811;BME280;42691;47.234;27.494;2022-09-12T12:48:32;99110.25;;;18.22;100.00
56811;BME280;42691;47.234;27.494;2022-09-12T12:51:22;99117.31;;;18.22;100.00
56811;BME280;42691;47.234;27.494;2022-09-12T12:53:51;99115.19;;;18.06;100.00
56811;BME280;42691;47.234;27.494;2022-09-12T12:56:33;99123.34;;;18.12;100.00
56811;BME280;42691;47.234;27.494;2022-09-12T12:59:02;99105.63;;;18.15;100.00
56811;BME280;42691;47.234;27.494;2022-09-12T13:01:28;99114.34;;;18.15;100.00
56811;BME280;42691;47.234;27.494;2022-09-12T13:04:12;99118.38;;;18.19;100.00
56811;BME280;42691;47.234;27.494;2022-09-12T13:09:38;99111.66;;;17.86;100.00
56811;BME280;42691;47.234;27.494;2022-09-12T13:12:11;99115.16;;;17.96;100.00
56811;BME280;42691;47.234;27.494;2022-09-12T13:17:15;99114.63;;;18.02;100.00
56811;BME280;42691;47.234;27.494;2022-09-12T13:19:43;99111.91;;;17.83;100.00
56811;BME280;42691;47.234;27.494;2022-09-12T13:22:10;99121.88;;;17.79;100.00
56811;BME280;42691;47.234;27.494;2022-09-12T13:24:46;99126.28;;;17.79;100.00
56811;BME280;42691;47.234;27.494;2022-09-12T13:27:25;99101.84;;;17.58;100.00
56811;BME280;42691;47.234;27.494;2022-09-12T13:30:08;99122.94;;;17.67;100.00
56811;BME280;42691;47.234;27.494;2022-09-12T13:32:38;99125.81;;;17.64;100.00
56811;BME280;42691;47.234;27.494;2022-09-12T13:35:12;99131.03;;;17.55;100.00
56811;BME280;42691;47.234;27.494;2022-09-12T13:37:48;99136.69;;;17.50;100.00
56811;BME280;42691;47.234;27.494;2022-09-12T13:43:19;99146.28;;;17.61;100.00
56811;BME280;42691;47.234;27.494;2022-09-12T13:45:51;99140.41;;;17.47;100.00
56811;BME280;42691;47.234;27.494;2022-09-12T13:48:19;99140.19;;;17.39;100.00
56811;BME280;42691;47.234;27.494;2022-09-12T13:50:52;99134.41;;;17.45;100.00
56811;BME280;42691;47.234;27.494;2022-09-12T13:53:21;99136.03;;;17.58;100.00
56811;BME280;42691;47.234;27.494;2022-09-12T13:55:57;99121.03;;;17.48;100.00
56811;BME280;42691;47.234;27.494;2022-09-12T13:58:28;99138.00;;;17.44;100.00
56811;BME280;42691;47.234;27.494;2022-09-12T14:06:48;99140.63;;;17.44;100.00
56811;BME280;42691;47.234;27.494;2022-09-12T14:09:21;99149.06;;;17.38;100.00
56811;BME280;42691;47.234;27.494;2022-09-12T14:11:47;99157.66;;;17.40;100.00
56811;BME280;42691;47.234;27.494;2022-09-12T14:14:36;99155.94;;;17.30;100.00
56811;BME280;42691;47.234;27.494;2022-09-12T14:17:35;99154.91;;;17.21;100.00
56811;BME280;42691;47.234;27.494;2022-09-12T14:20:11;99145.63;;;17.17;100.00
56811;BME280;42691;47.234;27.494;2022-09-12T14:22:38;99152.28;;;17.21;100.00
56811;BME280;42691;47.234;27.494;2022-09-12T14:25:05;99158.13;;;17.25;100.00
56811;BME280;42691;47.234;27.494;2022-09-12T14:27:43;99166.84;;;17.25;100.00
56811;BME280;42691;47.234;27.494;2022-09-12T14:30:34;99167.03;;;17.12;100.00
56811;BME280;42691;47.234;27.494;2022-09-12T14:33:20;99157.34;;;17.13;100.00
56811;BME280;42691;47.234;27.494;2022-09-12T14:35:50;99159.88;;;17.03;100.00
56811;BME280;42691;47.234;27.494;2022-09-12T14:40:44;99159.19;;;17.22;100.00
56811;BME280;42691;47.234;27.494;2022-09-12T14:43:51;99161.44;;;17.27;100.00
56811;BME280;42691;47.234;27.494;2022-09-12T14:46:17;99162.47;;;17.14;100.00
56811;BME280;42691;47.234;27.494;2022-09-12T14:49:08;99159.56;;;16.97;100.00
56811;BME280;42691;47.234;27.494;2022-09-12T14:51:39;99165.00;;;17.05;100.00
56811;BME280;42691;47.234;27.494;2022-09-12T14:54:05;99166.78;;;16.83;100.00
56811;BME280;42691;47.234;27.494;2022-09-12T14:56:54;99172.69;;;16.97;100.00
56811;BME280;42691;47.234;27.494;2022-09-12T15:07:31;99173.03;;;16.71;100.00
56811;BME280;42691;47.234;27.494;2022-09-12T15:10:00;99172.56;;;16.66;100.00
56811;BME280;42691;47.234;27.494;2022-09-12T15:12:26;99164.13;;;16.51;100.00
56811;BME280;42691;47.234;27.494;2022-09-12T15:14:52;99175.38;;;16.42;100.00
56811;BME280;42691;47.234;27.494;2022-09-12T15:17:18;99177.19;;;16.19;100.00
56811;BME280;42691;47.234;27.494;2022-09-12T15:19:44;99169.88;;;16.34;100.00
56811;BME280;42691;47.234;27.494;2022-09-12T15:22:11;99153.53;;;16.42;100.00
56811;BME280;42691;47.234;27.494;2022-09-12T15:24:37;99177.56;;;16.69;100.00
56811;BME280;42691;47.234;27.494;2022-09-12T15:27:10;99163.28;;;16.51;100.00
56811;BME280;42691;47.234;27.494;2022-09-12T15:29:36;99164.66;;;16.23;100.00
56811;BME280;42691;47.234;27.494;2022-09-12T15:32:02;99177.13;;;16.53;100.00
56811;BME280;42691;47.234;27.494;2022-09-12T15:34:28;99179.97;;;16.61;100.00
56811;BME280;42691;47.234;27.494;2022-09-12T15:36:53;99181.91;;;16.48;100.00
56811;BME280;42691;47.234;27.494;2022-09-12T15:39:19;99184.28;;;16.51;100.00
56811;BME280;42691;47.234;27.494;2022-09-12T15:41:46;99170.22;;;16.52;100.00
56811;BME280;42691;47.234;27.494;2022-09-12T15:44:12;99188.25;;;16.45;100.00
56811;BME280;42691;47.234;27.494;2022-09-12T15:46:38;99189.56;;;16.40;100.00
56811;BME280;42691;47.234;27.494;2022-09-12T15:49:04;99191.22;;;16.52;100.00
56811;BME280;42691;47.234;27.494;2022-09-12T15:51:31;99185.78;;;16.21;100.00
56811;BME280;42691;47.234;27.494;2022-09-12T15:53:57;99182.63;;;16.50;100.00
56811;BME280;42691;47.234;27.494;2022-09-12T15:56:24;99173.81;;;16.29;100.00